Terminal Aerodrome Forecast
Issued by NWS Omaha/Valley, NE

Home | Current Version | Previous Version | Graphics & Text | Print | Product List | Glossary On
Versions: 1 2 3 4 5 6 7 8 9 10 11 12 13 14 15 16 17 18 19 20 21 22 23 24 25 26 27 28 29 30 31
000
FTUS43 KOAX 241120
TAFOFK
TAF
KOFK 241120Z 2412/2512 16012KT P6SM BKN100
     FM241800 17016G24KT P6SM SCT250
     FM250200 16014KT P6SM BKN150=

USA.gov is the U.S. government's official web portal to all federal, state and local government web resources and services.